Arlington, Virginia
Current Conditions -  °F | °C
As of 12:52 AM on Thursday 29 Jan 2015 (Local Time) from KDCA Reporting Station
Clear Clear  
Wind Chill: 22°   Ceiling: Unl
Heat Index: 28°   Visibility: 10mi
Dew Point:   Wind: 6mph
Humidity: 41%   Direction: 340°NNW
Pressure: 30.35"   Gusts: NA
Location:  38.89°N, 77.09°W
Report Text: KDCA 290552Z 34005KT 10SM CLR M02/M14 A3035 RMK AO2 SLP276 T10221139 10011 21022 50002
Loading
Personal Weather Stations






























Interactive Weather Map New forecast layout! Learn more

10-Day Weather Forecast

Advertisements
Track Severe Weather on mobile